Grand River, Iowa
Current Conditions -  °F | °C
As of 6:53 PM on Tuesday 27 Jan 2015 (Local Time) from KLWD Reporting Station
Clear Clear  
Wind Chill:   Ceiling: Unl
Heat Index:   Visibility: 10mi
Dew Point: -2°   Wind: 5mph
Humidity: 65%   Direction: 110°ESE
Pressure: 30.11"   Gusts: NA
Location:  40.82°N, 93.96°W
Report Text: KLWD 280053Z AUTO 11004KT 10SM CLR 04/M02 A3011 RMK AO2 SLP208 T00441017
Loading
Personal Weather Stations






























Interactive Weather Map New forecast layout! Learn more

10-Day Weather Forecast

Advertisements
Track Severe Weather on mobile